createdAt,value
2022-10-23T00:01:29.765Z,3.27
2022-10-23T00:04:16.377Z,2.90
2022-10-23T00:06:48.713Z,3.87
2022-10-23T00:09:23.939Z,2.67
2022-10-23T00:11:57.871Z,3.20
2022-10-23T00:14:35.283Z,2.90
2022-10-23T00:19:50.627Z,3.87
2022-10-23T00:22:22.654Z,3.40
2022-10-23T00:24:51.648Z,4.27
2022-10-23T00:27:22.560Z,3.10
2022-10-23T00:29:58.079Z,4.17
2022-10-23T00:32:33.579Z,3.80
2022-10-23T00:35:14.238Z,3.60
2022-10-23T00:40:32.960Z,3.40
2022-10-23T00:43:13.734Z,3.93
2022-10-23T00:45:43.787Z,4.67
2022-10-23T00:48:15.147Z,5.90
2022-10-23T00:53:30.995Z,4.70
2022-10-23T00:56:02.607Z,6.73
2022-10-23T00:58:38.515Z,4.97
2022-10-23T01:04:18.629Z,6.23
2022-10-23T01:07:09.227Z,5.00
2022-10-23T01:09:57.715Z,5.30
2022-10-23T01:13:01.118Z,6.07
2022-10-23T01:15:55.705Z,5.60
2022-10-23T01:18:59.270Z,5.57
2022-10-23T01:21:56.943Z,6.17
2022-10-23T01:24:57.138Z,5.93
2022-10-23T01:27:58.767Z,5.23
2022-10-23T01:33:15.152Z,5.70
2022-10-23T01:36:11.582Z,5.27
2022-10-23T01:38:52.129Z,4.47
2022-10-23T01:41:41.805Z,5.73
2022-10-23T01:44:26.981Z,3.87
2022-10-23T01:46:58.159Z,3.63
2022-10-23T01:49:32.949Z,3.77
2022-10-23T01:52:18.400Z,3.03
2022-10-23T01:55:01.069Z,3.33
2022-10-23T01:57:40.341Z,3.57
2022-10-23T02:00:29.279Z,3.70
2022-10-23T02:03:11.156Z,3.37
2022-10-23T02:05:41.785Z,3.40
2022-10-23T02:08:21.966Z,3.40
2022-10-23T02:11:23.560Z,3.20
2022-10-23T02:14:03.771Z,3.37
2022-10-23T02:16:53.455Z,3.17
2022-10-23T02:19:55.651Z,3.90
2022-10-23T02:22:39.502Z,4.40
2022-10-23T02:25:27.666Z,3.53
2022-10-23T02:28:05.579Z,3.60
2022-10-23T02:30:57.379Z,3.90
2022-10-23T02:33:30.264Z,3.60
2022-10-23T02:38:46.766Z,4.60
2022-10-23T02:41:58.420Z,3.67
2022-10-23T02:44:57.972Z,3.20
2022-10-23T02:48:25.625Z,3.67
2022-10-23T02:51:13.084Z,3.97
2022-10-23T02:54:13.138Z,3.60
2022-10-23T02:57:12.440Z,3.23
2022-10-23T02:59:55.680Z,4.73
2022-10-23T03:05:12.876Z,5.17
2022-10-23T03:07:46.868Z,3.97
2022-10-23T03:15:47.662Z,6.07
2022-10-23T03:21:11.954Z,4.73
2022-10-23T03:23:41.922Z,3.73
2022-10-23T03:26:09.745Z,3.37
2022-10-23T03:28:44.757Z,3.90
2022-10-23T03:31:12.319Z,4.10
2022-10-23T03:33:50.748Z,3.20
2022-10-23T03:36:27.183Z,3.90
2022-10-23T03:41:41.763Z,3.30
2022-10-23T03:44:17.159Z,2.87
2022-10-23T03:46:46.983Z,3.50
2022-10-23T03:49:22.766Z,4.27
2022-10-23T03:54:38.868Z,3.93
2022-10-23T03:57:10.183Z,3.30
2022-10-23T03:59:41.146Z,3.43
2022-10-23T04:02:12.959Z,3.43
2022-10-23T04:07:27.070Z,3.57
2022-10-23T04:09:59.643Z,3.10
2022-10-23T04:12:28.680Z,3.93
2022-10-23T04:14:58.615Z,3.93
2022-10-23T04:20:11.928Z,5.23
2022-10-23T04:22:44.103Z,5.87
2022-10-23T04:25:13.531Z,4.03
2022-10-23T04:27:44.866Z,4.30
2022-10-23T04:30:16.256Z,5.23
2022-10-23T04:32:53.892Z,5.23
2022-10-23T04:35:27.639Z,5.07
2022-10-23T04:37:56.975Z,5.67
2022-10-23T04:40:28.816Z,4.50
2022-10-23T04:43:05.491Z,4.10
2022-10-23T04:45:42.388Z,4.30
2022-10-23T04:48:12.611Z,3.97
2022-10-23T04:51:03.522Z,4.00
2022-10-23T04:53:51.601Z,3.90
2022-10-23T04:56:39.639Z,4.07
2022-10-23T04:59:19.557Z,3.90
2022-10-23T05:02:02.690Z,9.30
2022-10-23T05:04:33.656Z,4.07
2022-10-23T05:07:37.616Z,3.43
2022-10-23T05:10:32.527Z,4.00
2022-10-23T05:13:14.393Z,4.00
2022-10-23T05:15:51.911Z,5.83
2022-10-23T05:18:40.192Z,3.73
2022-10-23T05:21:21.554Z,4.37
2022-10-23T05:23:55.280Z,4.10
2022-10-23T05:26:24.270Z,3.77
2022-10-23T05:28:56.443Z,3.93
2022-10-23T05:31:29.817Z,4.97
2022-10-23T05:34:16.427Z,3.40
2022-10-23T05:36:50.665Z,4.03
2022-10-23T05:39:32.874Z,3.97
2022-10-23T05:42:06.770Z,5.13
2022-10-23T05:44:43.224Z,4.57
2022-10-23T05:50:29.078Z,3.97
2022-10-23T05:53:29.044Z,3.67
2022-10-23T05:56:16.913Z,4.47
2022-10-23T06:01:51.129Z,4.03
2022-10-23T06:07:32.309Z,4.67
2022-10-23T06:10:09.802Z,4.67
2022-10-23T06:12:49.585Z,4.30
2022-10-23T06:15:22.120Z,6.13
2022-10-23T06:18:18.154Z,4.60
2022-10-23T06:21:21.538Z,4.80
2022-10-23T06:23:56.545Z,7.40
2022-10-23T06:26:45.553Z,5.10
2022-10-23T06:29:25.679Z,5.00
2022-10-23T06:37:23.958Z,6.37
2022-10-23T06:40:16.215Z,7.87
2022-10-23T06:42:58.102Z,7.33
2022-10-23T06:45:59.990Z,6.60
2022-10-23T06:48:53.479Z,5.87
2022-10-23T06:51:30.780Z,5.30
2022-10-23T06:54:08.639Z,6.67
2022-10-23T06:56:57.371Z,6.30
2022-10-23T06:59:40.294Z,7.60
2022-10-23T07:02:14.087Z,8.23
2022-10-23T07:04:46.007Z,7.97
2022-10-23T07:07:21.632Z,9.30
2022-10-23T07:09:58.891Z,9.03
2022-10-23T07:12:52.859Z,9.80
2022-10-23T07:15:55.695Z,10.43
2022-10-23T07:21:37.876Z,9.77
2022-10-23T07:24:28.844Z,12.03
2022-10-23T07:27:02.651Z,11.17
2022-10-23T07:29:34.134Z,12.23
2022-10-23T07:32:05.683Z,11.27
2022-10-23T07:35:09.075Z,11.20
2022-10-23T07:37:43.737Z,11.70
2022-10-23T07:40:15.745Z,12.20
2022-10-23T07:42:47.453Z,11.07
2022-10-23T07:45:25.119Z,15.47
2022-10-23T07:47:56.841Z,15.07
2022-10-23T07:50:35.095Z,11.70
2022-10-23T07:53:13.909Z,13.30
2022-10-23T07:56:02.030Z,12.37
2022-10-23T07:58:57.651Z,9.97
2022-10-23T08:01:36.508Z,8.70
2022-10-23T08:04:17.848Z,12.33
2022-10-23T08:07:07.611Z,8.07
2022-10-23T08:09:44.414Z,9.43
2022-10-23T08:12:18.717Z,8.30
2022-10-23T08:14:46.550Z,7.23
2022-10-23T08:17:21.041Z,6.87
2022-10-23T08:23:06.983Z,6.10
2022-10-23T08:25:38.234Z,5.13
2022-10-23T08:28:11.983Z,4.90
2022-10-23T08:30:54.767Z,6.47
2022-10-23T08:33:27.334Z,5.67
2022-10-23T08:35:58.053Z,5.10
2022-10-23T08:41:50.963Z,5.20
2022-10-23T08:44:39.239Z,4.40
2022-10-23T08:47:28.882Z,7.67
2022-10-23T08:51:00.113Z,7.07
2022-10-23T08:53:59.734Z,6.37
2022-10-23T08:57:10.924Z,6.67
2022-10-23T09:00:11.788Z,5.70
2022-10-23T09:02:52.624Z,5.50
2022-10-23T09:05:40.088Z,5.27
2022-10-23T09:08:28.723Z,6.67
2022-10-23T09:11:06.015Z,10.00
2022-10-23T09:14:16.854Z,7.87
2022-10-23T09:16:47.152Z,11.60
2022-10-23T09:19:26.315Z,12.77
2022-10-23T09:21:56.411Z,9.03
2022-10-23T09:24:26.668Z,17.87
2022-10-23T09:26:54.714Z,8.20
2022-10-23T09:29:26.676Z,11.37
2022-10-23T09:32:04.379Z,8.77
2022-10-23T09:34:34.156Z,9.20
2022-10-23T09:37:19.445Z,9.67
2022-10-23T09:39:49.236Z,8.07
2022-10-23T09:42:25.944Z,9.37
2022-10-23T09:44:55.414Z,8.97
2022-10-23T09:47:25.712Z,13.07
2022-10-23T09:49:57.385Z,9.83
2022-10-23T09:52:32.726Z,10.53
2022-10-23T09:55:02.996Z,10.80
2022-10-23T09:57:44.736Z,11.13
2022-10-23T10:00:20.123Z,12.83
2022-10-23T10:03:01.703Z,14.37
2022-10-23T10:05:55.780Z,14.27
2022-10-23T10:08:36.687Z,15.43
2022-10-23T10:11:25.075Z,14.73
2022-10-23T10:13:58.723Z,14.33
2022-10-23T10:16:46.460Z,16.00
2022-10-23T10:19:38.396Z,15.53
2022-10-23T10:22:22.572Z,16.30
2022-10-23T10:25:14.810Z,16.50
2022-10-23T10:27:51.217Z,17.60
2022-10-23T10:30:24.548Z,18.10
2022-10-23T10:33:17.913Z,18.10
2022-10-23T10:36:23.078Z,17.10
2022-10-23T10:38:59.726Z,17.33
2022-10-23T10:41:49.833Z,16.03
2022-10-23T10:44:17.271Z,16.60
2022-10-23T10:46:56.552Z,15.70
2022-10-23T10:49:36.792Z,16.17
2022-10-23T10:52:33.774Z,16.07
2022-10-23T10:55:19.303Z,16.63
2022-10-23T10:58:25.927Z,15.10
2022-10-23T11:01:01.492Z,14.20
2022-10-23T11:03:40.313Z,14.30
2022-10-23T11:06:15.895Z,14.80
2022-10-23T11:08:56.336Z,16.93
2022-10-23T11:11:34.848Z,14.90
2022-10-23T11:14:04.113Z,9.50
2022-10-23T11:16:39.688Z,7.67
2022-10-23T11:19:22.464Z,6.90
2022-10-23T11:22:48.405Z,6.30
2022-10-23T11:25:31.970Z,6.17
2022-10-23T11:28:38.088Z,5.77
2022-10-23T11:31:12.065Z,5.30
2022-10-23T11:34:01.223Z,5.37
2022-10-23T11:36:48.952Z,5.40
2022-10-23T11:39:23.345Z,5.37
2022-10-23T11:41:58.511Z,4.90
2022-10-23T11:44:35.248Z,4.63
2022-10-23T11:47:05.841Z,4.90
2022-10-23T11:49:35.590Z,5.13
2022-10-23T11:52:05.383Z,5.43
2022-10-23T11:54:35.876Z,5.30
2022-10-23T11:57:16.253Z,4.87
2022-10-23T11:59:49.649Z,5.27
2022-10-23T12:02:38.437Z,5.63
2022-10-23T12:05:30.115Z,5.40
2022-10-23T12:08:00.273Z,5.97
2022-10-23T12:10:34.473Z,5.43
2022-10-23T12:13:27.634Z,5.30
2022-10-23T12:15:58.511Z,5.93
2022-10-23T12:18:28.791Z,5.83
2022-10-23T12:21:02.305Z,5.10
2022-10-23T12:24:11.647Z,5.37
2022-10-23T12:27:21.125Z,5.27
2022-10-23T12:30:12.248Z,6.00
2022-10-23T12:33:04.689Z,5.70
2022-10-23T12:35:56.405Z,5.90
2022-10-23T12:38:34.028Z,5.87
2022-10-23T12:41:24.274Z,5.80
2022-10-23T12:43:58.638Z,5.77
2022-10-23T12:46:33.888Z,6.03
2022-10-23T12:49:05.414Z,5.97
2022-10-23T12:51:36.348Z,5.23
2022-10-23T12:54:15.405Z,5.27
2022-10-23T12:56:44.422Z,5.73
2022-10-23T12:59:44.630Z,6.47
2022-10-23T13:02:32.418Z,5.93
2022-10-23T13:05:08.364Z,5.90
2022-10-23T13:07:43.068Z,5.63
2022-10-23T13:10:17.944Z,6.40
2022-10-23T13:13:06.691Z,6.10
2022-10-23T13:15:44.535Z,6.13
2022-10-23T13:18:16.977Z,6.40
2022-10-23T13:20:58.397Z,6.73
2022-10-23T13:23:36.341Z,6.77
2022-10-23T13:26:21.437Z,8.17
2022-10-23T13:28:50.161Z,7.93
2022-10-23T13:31:20.079Z,8.07
2022-10-23T13:33:55.048Z,9.50
2022-10-23T13:36:24.754Z,8.63
2022-10-23T13:39:14.698Z,9.03
2022-10-23T13:41:47.199Z,7.93
2022-10-23T13:44:21.031Z,8.83
2022-10-23T13:46:49.028Z,7.93
2022-10-23T13:49:17.576Z,9.00
2022-10-23T13:51:54.505Z,8.70
2022-10-23T13:57:00.703Z,9.40
2022-10-23T13:59:28.413Z,9.63
2022-10-23T14:01:55.998Z,9.30
2022-10-23T14:04:25.042Z,9.43
2022-10-23T14:06:58.401Z,9.93
2022-10-23T14:09:26.179Z,10.10
2022-10-23T14:11:56.417Z,10.53
2022-10-23T14:14:25.514Z,10.03
2022-10-23T14:16:54.891Z,10.67
2022-10-23T14:19:22.764Z,10.30
2022-10-23T14:21:50.509Z,10.33
2022-10-23T14:24:18.405Z,10.23
2022-10-23T14:26:46.518Z,9.50
2022-10-23T14:29:21.449Z,9.83
2022-10-23T14:31:52.463Z,9.70
2022-10-23T14:34:20.530Z,8.80
2022-10-23T14:36:50.937Z,9.80
2022-10-23T14:39:25.219Z,9.43
2022-10-23T14:41:52.883Z,9.10
2022-10-23T14:44:23.415Z,10.23
2022-10-23T14:46:52.100Z,9.83
2022-10-23T14:49:21.151Z,9.67
2022-10-23T14:51:52.049Z,9.80
2022-10-23T14:54:20.716Z,10.33
2022-10-23T14:56:48.548Z,10.70
2022-10-23T14:59:16.520Z,11.03
2022-10-23T15:01:48.212Z,12.00
2022-10-23T15:04:16.750Z,13.30
2022-10-23T15:06:47.216Z,14.07
2022-10-23T15:09:16.759Z,14.50
2022-10-23T15:11:46.944Z,15.43
2022-10-23T15:14:17.520Z,17.47
2022-10-23T15:16:46.392Z,18.33
2022-10-23T15:19:18.550Z,17.83
2022-10-23T15:21:48.632Z,17.47
2022-10-23T15:24:18.537Z,18.30
2022-10-23T15:26:46.758Z,20.20
2022-10-23T15:29:16.561Z,21.33
2022-10-23T15:31:59.400Z,22.27
2022-10-23T15:34:30.575Z,23.53
2022-10-23T15:37:01.429Z,23.50
2022-10-23T15:39:36.568Z,24.37
2022-10-23T15:42:07.546Z,25.70
2022-10-23T15:44:44.351Z,25.93
2022-10-23T15:47:12.465Z,27.50
2022-10-23T15:49:43.117Z,27.13
2022-10-23T15:52:11.494Z,26.77
2022-10-23T15:54:39.449Z,28.47
2022-10-23T15:57:07.396Z,29.07
2022-10-23T15:59:35.333Z,29.10
2022-10-23T16:02:05.023Z,28.80
2022-10-23T16:04:40.914Z,28.93
2022-10-23T16:07:14.952Z,29.70
2022-10-23T16:09:45.944Z,33.43
2022-10-23T16:12:17.649Z,34.37
2022-10-23T16:14:48.546Z,35.53
2022-10-23T16:17:26.898Z,35.37
2022-10-23T16:19:57.382Z,37.90
2022-10-23T16:22:41.378Z,37.53
2022-10-23T16:25:14.299Z,38.57
2022-10-23T16:27:43.172Z,38.73
2022-10-23T16:30:14.795Z,38.10
2022-10-23T16:32:48.047Z,40.50
2022-10-23T16:35:24.602Z,40.67
2022-10-23T16:38:09.889Z,41.13
2022-10-23T16:40:41.432Z,38.67
2022-10-23T16:43:33.306Z,42.53
2022-10-23T16:46:22.358Z,41.93
2022-10-23T16:48:56.058Z,42.87
2022-10-23T16:51:31.911Z,39.10
2022-10-23T16:54:06.849Z,37.60
2022-10-23T16:56:39.854Z,37.53
2022-10-23T16:59:07.911Z,39.80
2022-10-23T17:01:39.794Z,39.93
2022-10-23T17:04:11.563Z,40.90
2022-10-23T17:06:43.573Z,40.77
2022-10-23T17:09:14.195Z,42.73
2022-10-23T17:11:52.674Z,39.23
2022-10-23T17:14:29.610Z,40.77
2022-10-23T17:17:05.874Z,37.87
2022-10-23T17:19:45.061Z,39.50
2022-10-23T17:22:17.325Z,38.87
2022-10-23T17:24:51.607Z,38.23
2022-10-23T17:27:23.767Z,37.17
2022-10-23T17:29:57.829Z,35.57
2022-10-23T17:32:31.333Z,33.77
2022-10-23T17:35:05.190Z,33.40
2022-10-23T17:40:34.283Z,29.70
2022-10-23T17:43:07.002Z,28.60
2022-10-23T17:45:43.161Z,29.93
2022-10-23T17:48:21.559Z,30.30
2022-10-23T17:50:51.708Z,30.87
2022-10-23T17:53:30.764Z,29.03
2022-10-23T17:56:16.761Z,28.00
2022-10-23T17:58:58.743Z,28.87
2022-10-23T18:01:33.652Z,30.47
2022-10-23T18:04:08.061Z,30.23
2022-10-23T18:06:42.039Z,29.43
2022-10-23T18:09:25.713Z,33.10
2022-10-23T18:11:55.548Z,28.77
2022-10-23T18:14:29.434Z,28.53
2022-10-23T18:17:09.740Z,29.67
2022-10-23T18:19:49.863Z,29.63
2022-10-23T18:22:24.925Z,29.73
2022-10-23T18:25:00.044Z,30.23
2022-10-23T18:27:37.939Z,30.57
2022-10-23T18:30:12.832Z,31.97
2022-10-23T18:32:43.886Z,31.43
2022-10-23T18:35:20.344Z,31.87
2022-10-23T18:40:42.893Z,30.10
2022-10-23T18:43:31.374Z,30.80
2022-10-23T18:46:16.500Z,33.47
2022-10-23T18:48:50.174Z,32.77
2022-10-23T18:51:24.753Z,31.13
2022-10-23T18:54:01.028Z,32.30
2022-10-23T18:56:44.904Z,33.10
2022-10-23T18:59:30.127Z,34.07
2022-10-23T19:02:05.144Z,33.63
2022-10-23T19:04:36.815Z,35.50
2022-10-23T19:07:11.598Z,35.50
2022-10-23T19:09:44.228Z,33.20
2022-10-23T19:12:16.184Z,35.93
2022-10-23T19:15:05.540Z,36.27
2022-10-23T19:17:39.942Z,34.13
2022-10-23T19:20:16.277Z,35.37
2022-10-23T19:22:53.727Z,38.10
2022-10-23T19:31:21.995Z,37.23
2022-10-23T19:33:54.706Z,36.50
2022-10-23T19:36:27.451Z,36.47
2022-10-23T19:39:01.351Z,39.73
2022-10-23T19:41:33.614Z,37.20
2022-10-23T19:44:06.996Z,36.47
2022-10-23T19:46:38.582Z,35.50
2022-10-23T19:49:11.445Z,39.60
2022-10-23T19:51:50.656Z,37.30
2022-10-23T19:54:26.914Z,37.63
2022-10-23T19:57:08.900Z,35.97
2022-10-23T19:59:39.980Z,34.70
2022-10-23T20:02:11.393Z,37.87
2022-10-23T20:04:54.451Z,33.87
2022-10-23T20:07:31.994Z,37.17
2022-10-23T20:10:10.319Z,37.70
2022-10-23T20:12:56.531Z,34.57
2022-10-23T20:15:34.213Z,37.13
2022-10-23T20:18:12.168Z,39.10
2022-10-23T20:20:50.039Z,41.50
2022-10-23T20:23:19.966Z,41.90
2022-10-23T20:25:58.581Z,41.50
2022-10-23T20:28:29.643Z,44.73
2022-10-23T20:31:07.934Z,44.50
2022-10-23T20:33:45.031Z,43.83
2022-10-23T20:36:35.283Z,43.63
2022-10-23T20:39:12.954Z,40.47
2022-10-23T20:41:47.799Z,42.83
2022-10-23T20:44:20.973Z,46.03
2022-10-23T20:52:21.492Z,47.33
2022-10-23T20:54:52.008Z,38.67
2022-10-23T20:57:25.626Z,39.17
2022-10-23T20:59:54.047Z,45.70
2022-10-23T21:02:21.712Z,45.80
2022-10-23T21:04:50.763Z,46.83
2022-10-23T21:07:24.480Z,42.50
2022-10-23T21:09:55.656Z,41.37
2022-10-23T21:12:28.856Z,43.07
2022-10-23T21:15:01.292Z,45.93
2022-10-23T21:17:36.831Z,44.57
2022-10-23T21:20:09.067Z,39.97
2022-10-23T21:22:39.871Z,42.03
2022-10-23T21:25:10.467Z,39.20
2022-10-23T21:27:40.218Z,40.47
2022-10-23T21:30:25.010Z,42.70
2022-10-23T21:32:55.953Z,42.70
2022-10-23T21:35:26.574Z,42.50
2022-10-23T21:37:58.753Z,39.20
2022-10-23T21:43:11.335Z,39.77
2022-10-23T21:45:46.071Z,42.20
2022-10-23T21:48:19.145Z,46.17
2022-10-23T21:53:24.575Z,36.13
2022-10-23T21:55:57.898Z,37.33
2022-10-23T22:01:12.928Z,38.30
2022-10-23T22:03:42.902Z,36.40
2022-10-23T22:06:42.610Z,40.07
2022-10-23T22:09:19.556Z,43.83
2022-10-23T22:11:52.823Z,39.57
2022-10-23T22:14:23.513Z,36.63
2022-10-23T22:16:55.542Z,36.97
2022-10-23T22:22:11.507Z,37.53
2022-10-23T22:24:38.956Z,37.33
2022-10-23T22:27:12.464Z,39.70
2022-10-23T22:29:43.540Z,34.37
2022-10-23T22:32:14.653Z,36.37
2022-10-23T22:34:53.017Z,34.37
2022-10-23T22:37:24.274Z,33.77
2022-10-23T22:39:53.261Z,34.13
2022-10-23T22:42:23.805Z,34.53
2022-10-23T22:44:53.319Z,32.73
2022-10-23T22:50:09.242Z,30.97
2022-10-23T22:52:40.512Z,30.80
2022-10-23T22:55:12.832Z,28.53
2022-10-23T22:57:45.274Z,30.87
2022-10-23T23:00:18.731Z,29.93
2022-10-23T23:02:47.560Z,28.37
2022-10-23T23:05:18.798Z,27.37
2022-10-23T23:07:49.254Z,23.57
2022-10-23T23:10:20.993Z,22.97
2022-10-23T23:12:53.499Z,25.23
2022-10-23T23:15:22.085Z,23.03
2022-10-23T23:20:39.294Z,23.60
2022-10-23T23:23:14.599Z,21.77
2022-10-23T23:25:49.165Z,20.93
2022-10-23T23:28:20.159Z,20.70
2022-10-23T23:31:02.835Z,20.27
2022-10-23T23:33:40.339Z,20.90
2022-10-23T23:36:10.742Z,18.80
2022-10-23T23:38:39.974Z,19.20
2022-10-23T23:41:17.973Z,19.67
2022-10-23T23:43:48.904Z,19.47
2022-10-23T23:46:17.521Z,17.57
2022-10-23T23:48:49.796Z,18.37
2022-10-23T23:51:28.460Z,21.53
2022-10-23T23:53:58.148Z,18.07
2022-10-23T23:56:31.605Z,20.13
2022-10-23T23:59:02.585Z,17.27
